sensor_id;sensor_type;location;lat;lon;timestamp;temperature;humidity
48648;DHT22;34437;-33.956;151.076;2023-02-13T00:02:20;25.80;63.10
48648;DHT22;34437;-33.956;151.076;2023-02-13T00:04:42;25.90;63.00
48648;DHT22;34437;-33.956;151.076;2023-02-13T00:07:04;25.90;63.00
48648;DHT22;34437;-33.956;151.076;2023-02-13T00:09:27;26.00;62.90
48648;DHT22;34437;-33.956;151.076;2023-02-13T00:11:49;26.00;62.80
48648;DHT22;34437;-33.956;151.076;2023-02-13T00:14:12;26.00;62.70
48648;DHT22;34437;-33.956;151.076;2023-02-13T00:16:34;26.10;62.80
48648;DHT22;34437;-33.956;151.076;2023-02-13T00:18:57;26.10;62.20
48648;DHT22;34437;-33.956;151.076;2023-02-13T00:21:19;26.10;63.10
48648;DHT22;34437;-33.956;151.076;2023-02-13T00:23:41;26.10;62.40
48648;DHT22;34437;-33.956;151.076;2023-02-13T00:26:10;26.20;62.30
48648;DHT22;34437;-33.956;151.076;2023-02-13T00:28:33;26.20;62.30
48648;DHT22;34437;-33.956;151.076;2023-02-13T00:31:05;26.30;62.40
48648;DHT22;34437;-33.956;151.076;2023-02-13T00:33:28;26.30;62.10
48648;DHT22;34437;-33.956;151.076;2023-02-13T00:35:51;26.30;62.10
48648;DHT22;34437;-33.956;151.076;2023-02-13T00:38:13;26.30;62.00
48648;DHT22;34437;-33.956;151.076;2023-02-13T00:40:35;26.40;62.00
48648;DHT22;34437;-33.956;151.076;2023-02-13T00:42:58;26.40;61.90
48648;DHT22;34437;-33.956;151.076;2023-02-13T00:45:20;26.40;61.80
48648;DHT22;34437;-33.956;151.076;2023-02-13T00:47:43;26.50;61.90
48648;DHT22;34437;-33.956;151.076;2023-02-13T00:50:06;26.50;61.60
48648;DHT22;34437;-33.956;151.076;2023-02-13T00:52:28;26.50;61.60
48648;DHT22;34437;-33.956;151.076;2023-02-13T00:54:50;26.50;61.60
48648;DHT22;34437;-33.956;151.076;2023-02-13T00:57:13;26.50;61.50
48648;DHT22;34437;-33.956;151.076;2023-02-13T00:59:35;26.60;61.90
48648;DHT22;34437;-33.956;151.076;2023-02-13T01:01:57;26.60;61.40
48648;DHT22;34437;-33.956;151.076;2023-02-13T01:04:20;26.60;61.20
48648;DHT22;34437;-33.956;151.076;2023-02-13T01:06:42;26.60;60.80
48648;DHT22;34437;-33.956;151.076;2023-02-13T01:09:05;26.60;60.60
48648;DHT22;34437;-33.956;151.076;2023-02-13T01:11:27;26.60;60.30
48648;DHT22;34437;-33.956;151.076;2023-02-13T01:13:50;26.60;60.10
48648;DHT22;34437;-33.956;151.076;2023-02-13T01:16:12;26.60;60.20
48648;DHT22;34437;-33.956;151.076;2023-02-13T01:18:36;26.60;60.10
48648;DHT22;34437;-33.956;151.076;2023-02-13T01:21:06;26.60;60.10
48648;DHT22;34437;-33.956;151.076;2023-02-13T01:23:33;26.40;58.10
48648;DHT22;34437;-33.956;151.076;2023-02-13T01:25:55;26.20;56.10
48648;DHT22;34437;-33.956;151.076;2023-02-13T01:28:18;25.90;56.00
48648;DHT22;34437;-33.956;151.076;2023-02-13T01:30:40;25.70;55.80
48648;DHT22;34437;-33.956;151.076;2023-02-13T01:33:03;25.60;54.90
48648;DHT22;34437;-33.956;151.076;2023-02-13T01:35:25;25.40;55.10
48648;DHT22;34437;-33.956;151.076;2023-02-13T01:37:48;25.20;54.60
48648;DHT22;34437;-33.956;151.076;2023-02-13T01:40:12;25.10;54.30
48648;DHT22;34437;-33.956;151.076;2023-02-13T01:42:35;25.00;54.10
48648;DHT22;34437;-33.956;151.076;2023-02-13T01:45:44;24.90;53.70
48648;DHT22;34437;-33.956;151.076;2023-02-13T01:47:44;24.80;53.80
48648;DHT22;34437;-33.956;151.076;2023-02-13T01:50:18;24.60;54.20
48648;DHT22;34437;-33.956;151.076;2023-02-13T01:52:47;24.50;54.80
48648;DHT22;34437;-33.956;151.076;2023-02-13T01:55:11;24.40;55.00
48648;DHT22;34437;-33.956;151.076;2023-02-13T01:57:37;24.20;55.20
48648;DHT22;34437;-33.956;151.076;2023-02-13T02:00:06;24.20;54.40
48648;DHT22;34437;-33.956;151.076;2023-02-13T02:02:32;24.00;53.80
48648;DHT22;34437;-33.956;151.076;2023-02-13T02:04:56;23.90;54.30
48648;DHT22;34437;-33.956;151.076;2023-02-13T02:07:25;23.80;53.80
48648;DHT22;34437;-33.956;151.076;2023-02-13T02:09:49;23.70;53.50
48648;DHT22;34437;-33.956;151.076;2023-02-13T02:12:33;23.60;53.50
48648;DHT22;34437;-33.956;151.076;2023-02-13T02:14:59;23.50;54.90
48648;DHT22;34437;-33.956;151.076;2023-02-13T02:17:24;23.40;55.30
48648;DHT22;34437;-33.956;151.076;2023-02-13T02:25:59;23.10;55.20
48648;DHT22;34437;-33.956;151.076;2023-02-13T02:28:09;23.00;56.50
48648;DHT22;34437;-33.956;151.076;2023-02-13T02:36:16;22.80;56.20
48648;DHT22;34437;-33.956;151.076;2023-02-13T02:50:13;22.40;55.50
48648;DHT22;34437;-33.956;151.076;2023-02-13T03:01:28;22.10;56.80
48648;DHT22;34437;-33.956;151.076;2023-02-13T03:04:21;22.00;56.10
48648;DHT22;34437;-33.956;151.076;2023-02-13T03:07:06;22.00;56.10
48648;DHT22;34437;-33.956;151.076;2023-02-13T03:09:34;21.90;56.10
48648;DHT22;34437;-33.956;151.076;2023-02-13T03:12:20;21.80;55.90
48648;DHT22;34437;-33.956;151.076;2023-02-13T03:15:01;21.80;56.30
48648;DHT22;34437;-33.956;151.076;2023-02-13T03:17:24;21.70;56.40
48648;DHT22;34437;-33.956;151.076;2023-02-13T03:26:06;21.50;56.30
48648;DHT22;34437;-33.956;151.076;2023-02-13T03:28:58;21.50;56.60
48648;DHT22;34437;-33.956;151.076;2023-02-13T03:31:57;21.50;57.00
48648;DHT22;34437;-33.956;151.076;2023-02-13T03:34:24;21.40;56.50
48648;DHT22;34437;-33.956;151.076;2023-02-13T03:37:09;21.40;56.70
48648;DHT22;34437;-33.956;151.076;2023-02-13T03:40:06;21.30;56.40
48648;DHT22;34437;-33.956;151.076;2023-02-13T03:45:29;21.20;56.90
48648;DHT22;34437;-33.956;151.076;2023-02-13T03:48:10;21.20;57.20
48648;DHT22;34437;-33.956;151.076;2023-02-13T03:50:53;21.20;57.10
48648;DHT22;34437;-33.956;151.076;2023-02-13T03:53:17;21.10;57.20
48648;DHT22;34437;-33.956;151.076;2023-02-13T03:55:44;21.00;57.20
48648;DHT22;34437;-33.956;151.076;2023-02-13T04:01:11;21.00;57.30
48648;DHT22;34437;-33.956;151.076;2023-02-13T04:06:10;20.90;57.30
48648;DHT22;34437;-33.956;151.076;2023-02-13T04:08:33;20.90;57.40
48648;DHT22;34437;-33.956;151.076;2023-02-13T04:11:15;20.90;57.30
48648;DHT22;34437;-33.956;151.076;2023-02-13T04:16:17;20.90;57.40
48648;DHT22;34437;-33.956;151.076;2023-02-13T04:18:43;20.80;57.30
48648;DHT22;34437;-33.956;151.076;2023-02-13T04:21:06;20.80;57.50
48648;DHT22;34437;-33.956;151.076;2023-02-13T04:23:29;20.70;57.40
48648;DHT22;34437;-33.956;151.076;2023-02-13T04:25:53;20.70;57.50
48648;DHT22;34437;-33.956;151.076;2023-02-13T04:28:16;20.70;57.40
48648;DHT22;34437;-33.956;151.076;2023-02-13T04:30:42;20.70;57.60
48648;DHT22;34437;-33.956;151.076;2023-02-13T04:33:07;20.70;57.50
48648;DHT22;34437;-33.956;151.076;2023-02-13T04:35:30;20.70;57.50
48648;DHT22;34437;-33.956;151.076;2023-02-13T04:37:52;20.60;57.50
48648;DHT22;34437;-33.956;151.076;2023-02-13T04:40:15;20.60;58.00
48648;DHT22;34437;-33.956;151.076;2023-02-13T04:42:37;20.60;57.40
48648;DHT22;34437;-33.956;151.076;2023-02-13T04:44:59;20.60;57.30
48648;DHT22;34437;-33.956;151.076;2023-02-13T04:47:22;20.60;57.40
48648;DHT22;34437;-33.956;151.076;2023-02-13T04:49:44;20.50;57.30
48648;DHT22;34437;-33.956;151.076;2023-02-13T04:52:06;20.50;57.10
48648;DHT22;34437;-33.956;151.076;2023-02-13T04:54:29;20.40;57.50
48648;DHT22;34437;-33.956;151.076;2023-02-13T04:56:51;20.40;57.50
48648;DHT22;34437;-33.956;151.076;2023-02-13T04:59:23;20.40;58.20
48648;DHT22;34437;-33.956;151.076;2023-02-13T05:01:45;20.30;57.60
48648;DHT22;34437;-33.956;151.076;2023-02-13T05:04:08;20.30;57.70
48648;DHT22;34437;-33.956;151.076;2023-02-13T05:06:31;20.30;57.80
48648;DHT22;34437;-33.956;151.076;2023-02-13T05:08:54;20.30;58.00
48648;DHT22;34437;-33.956;151.076;2023-02-13T05:11:16;20.30;57.80
48648;DHT22;34437;-33.956;151.076;2023-02-13T05:13:39;20.20;58.10
48648;DHT22;34437;-33.956;151.076;2023-02-13T05:16:01;20.20;58.00
48648;DHT22;34437;-33.956;151.076;2023-02-13T05:18:24;20.10;58.00
48648;DHT22;34437;-33.956;151.076;2023-02-13T05:20:47;20.20;58.00
48648;DHT22;34437;-33.956;151.076;2023-02-13T05:23:27;20.10;58.10
48648;DHT22;34437;-33.956;151.076;2023-02-13T05:25:50;20.10;58.20
48648;DHT22;34437;-33.956;151.076;2023-02-13T05:28:12;20.10;58.40
48648;DHT22;34437;-33.956;151.076;2023-02-13T05:30:53;20.00;58.20
48648;DHT22;34437;-33.956;151.076;2023-02-13T05:33:15;20.00;58.20
48648;DHT22;34437;-33.956;151.076;2023-02-13T05:35:37;20.00;58.00
48648;DHT22;34437;-33.956;151.076;2023-02-13T05:38:00;20.00;58.10
48648;DHT22;34437;-33.956;151.076;2023-02-13T05:40:22;20.00;58.20
48648;DHT22;34437;-33.956;151.076;2023-02-13T05:42:45;19.90;58.40
48648;DHT22;34437;-33.956;151.076;2023-02-13T05:45:08;19.90;58.40
48648;DHT22;34437;-33.956;151.076;2023-02-13T05:47:30;19.90;58.40
48648;DHT22;34437;-33.956;151.076;2023-02-13T05:49:53;19.90;58.90
48648;DHT22;34437;-33.956;151.076;2023-02-13T05:52:15;20.00;59.40
48648;DHT22;34437;-33.956;151.076;2023-02-13T05:54:40;20.20;59.70
48648;DHT22;34437;-33.956;151.076;2023-02-13T05:57:03;20.40;59.80
48648;DHT22;34437;-33.956;151.076;2023-02-13T05:59:25;20.70;60.00
48648;DHT22;34437;-33.956;151.076;2023-02-13T06:01:47;20.90;59.90
48648;DHT22;34437;-33.956;151.076;2023-02-13T06:04:10;21.10;60.00
48648;DHT22;34437;-33.956;151.076;2023-02-13T06:06:32;21.40;60.00
48648;DHT22;34437;-33.956;151.076;2023-02-13T06:08:55;21.50;60.00
48648;DHT22;34437;-33.956;151.076;2023-02-13T06:11:17;21.70;59.90
48648;DHT22;34437;-33.956;151.076;2023-02-13T06:13:40;21.80;59.80
48648;DHT22;34437;-33.956;151.076;2023-02-13T06:16:02;22.00;59.60
48648;DHT22;34437;-33.956;151.076;2023-02-13T06:18:25;22.00;59.50
48648;DHT22;34437;-33.956;151.076;2023-02-13T06:20:47;22.20;60.00
48648;DHT22;34437;-33.956;151.076;2023-02-13T06:23:10;22.30;60.10
48648;DHT22;34437;-33.956;151.076;2023-02-13T06:25:36;22.40;60.00
48648;DHT22;34437;-33.956;151.076;2023-02-13T06:27:58;22.50;60.20
48648;DHT22;34437;-33.956;151.076;2023-02-13T06:30:21;22.50;60.70
48648;DHT22;34437;-33.956;151.076;2023-02-13T06:32:45;22.50;61.40
48648;DHT22;34437;-33.956;151.076;2023-02-13T06:35:08;22.50;62.20
48648;DHT22;34437;-33.956;151.076;2023-02-13T06:37:31;22.50;62.50
48648;DHT22;34437;-33.956;151.076;2023-02-13T06:39:53;22.60;62.70
48648;DHT22;34437;-33.956;151.076;2023-02-13T06:42:16;22.60;62.90
48648;DHT22;34437;-33.956;151.076;2023-02-13T06:44:42;22.70;63.00
48648;DHT22;34437;-33.956;151.076;2023-02-13T06:47:04;22.80;63.20
48648;DHT22;34437;-33.956;151.076;2023-02-13T06:49:27;22.80;63.20
48648;DHT22;34437;-33.956;151.076;2023-02-13T06:51:49;22.90;62.90
48648;DHT22;34437;-33.956;151.076;2023-02-13T06:54:12;22.90;62.60
48648;DHT22;34437;-33.956;151.076;2023-02-13T06:56:34;23.00;62.30
48648;DHT22;34437;-33.956;151.076;2023-02-13T06:58:57;23.00;62.10
48648;DHT22;34437;-33.956;151.076;2023-02-13T07:01:19;23.10;62.00
48648;DHT22;34437;-33.956;151.076;2023-02-13T07:03:42;23.10;61.90
48648;DHT22;34437;-33.956;151.076;2023-02-13T07:06:04;23.20;61.80
48648;DHT22;34437;-33.956;151.076;2023-02-13T07:08:27;23.20;61.60
48648;DHT22;34437;-33.956;151.076;2023-02-13T07:10:50;23.30;61.60
48648;DHT22;34437;-33.956;151.076;2023-02-13T07:13:12;23.30;61.50
48648;DHT22;34437;-33.956;151.076;2023-02-13T07:15:35;23.30;61.30
48648;DHT22;34437;-33.956;151.076;2023-02-13T07:17:58;23.40;61.40
48648;DHT22;34437;-33.956;151.076;2023-02-13T07:20:20;23.50;61.30
48648;DHT22;34437;-33.956;151.076;2023-02-13T07:22:43;23.50;61.30
48648;DHT22;34437;-33.956;151.076;2023-02-13T07:25:06;23.50;61.10
48648;DHT22;34437;-33.956;151.076;2023-02-13T07:27:28;23.50;61.10
48648;DHT22;34437;-33.956;151.076;2023-02-13T07:29:51;23.60;61.10
48648;DHT22;34437;-33.956;151.076;2023-02-13T07:32:13;23.60;61.00
48648;DHT22;34437;-33.956;151.076;2023-02-13T07:34:36;23.60;60.90
48648;DHT22;34437;-33.956;151.076;2023-02-13T07:36:58;23.70;60.90
48648;DHT22;34437;-33.956;151.076;2023-02-13T07:39:27;23.70;60.90
48648;DHT22;34437;-33.956;151.076;2023-02-13T07:41:50;23.70;60.80
48648;DHT22;34437;-33.956;151.076;2023-02-13T07:44:12;23.80;60.80
48648;DHT22;34437;-33.956;151.076;2023-02-13T07:46:35;23.80;60.80
48648;DHT22;34437;-33.956;151.076;2023-02-13T07:48:57;23.80;60.80
48648;DHT22;34437;-33.956;151.076;2023-02-13T07:51:20;23.80;60.80
48648;DHT22;34437;-33.956;151.076;2023-02-13T07:53:48;23.80;60.80
48648;DHT22;34437;-33.956;151.076;2023-02-13T07:56:10;23.90;60.80
48648;DHT22;34437;-33.956;151.076;2023-02-13T07:58:33;23.90;60.90
48648;DHT22;34437;-33.956;151.076;2023-02-13T08:00:55;23.90;60.80
48648;DHT22;34437;-33.956;151.076;2023-02-13T08:03:18;24.00;60.90
48648;DHT22;34437;-33.956;151.076;2023-02-13T08:05:40;24.00;60.80
48648;DHT22;34437;-33.956;151.076;2023-02-13T08:08:03;24.00;60.90
48648;DHT22;34437;-33.956;151.076;2023-02-13T08:10:25;24.00;60.90
48648;DHT22;34437;-33.956;151.076;2023-02-13T08:13:06;24.00;61.00
48648;DHT22;34437;-33.956;151.076;2023-02-13T08:15:29;24.00;61.10
48648;DHT22;34437;-33.956;151.076;2023-02-13T08:17:52;24.10;61.10
48648;DHT22;34437;-33.956;151.076;2023-02-13T08:20:34;24.10;61.20
48648;DHT22;34437;-33.956;151.076;2023-02-13T08:23:04;24.10;61.30
48648;DHT22;34437;-33.956;151.076;2023-02-13T08:25:27;24.10;61.10
48648;DHT22;34437;-33.956;151.076;2023-02-13T08:27:50;24.20;61.20
48648;DHT22;34437;-33.956;151.076;2023-02-13T08:30:13;24.10;61.30
48648;DHT22;34437;-33.956;151.076;2023-02-13T08:32:36;24.20;61.30
48648;DHT22;34437;-33.956;151.076;2023-02-13T08:34:58;24.20;61.40
48648;DHT22;34437;-33.956;151.076;2023-02-13T08:37:21;24.20;61.40
48648;DHT22;34437;-33.956;151.076;2023-02-13T08:39:43;24.20;62.10
48648;DHT22;34437;-33.956;151.076;2023-02-13T08:42:06;24.20;61.40
48648;DHT22;34437;-33.956;151.076;2023-02-13T08:44:28;24.20;61.40
48648;DHT22;34437;-33.956;151.076;2023-02-13T08:46:51;24.20;61.40
48648;DHT22;34437;-33.956;151.076;2023-02-13T08:49:13;24.20;61.40
48648;DHT22;34437;-33.956;151.076;2023-02-13T08:51:36;24.20;61.40
48648;DHT22;34437;-33.956;151.076;2023-02-13T08:53:58;24.30;61.40
48648;DHT22;34437;-33.956;151.076;2023-02-13T08:56:20;24.30;61.60
48648;DHT22;34437;-33.956;151.076;2023-02-13T08:58:43;24.30;61.50
48648;DHT22;34437;-33.956;151.076;2023-02-13T09:01:07;24.30;61.50
48648;DHT22;34437;-33.956;151.076;2023-02-13T09:03:29;24.30;61.50
48648;DHT22;34437;-33.956;151.076;2023-02-13T09:05:52;24.30;61.40
48648;DHT22;34437;-33.956;151.076;2023-02-13T09:08:14;24.30;61.50
48648;DHT22;34437;-33.956;151.076;2023-02-13T09:10:37;24.30;61.50
48648;DHT22;34437;-33.956;151.076;2023-02-13T09:13:00;24.30;61.50
48648;DHT22;34437;-33.956;151.076;2023-02-13T09:15:22;24.30;61.50
48648;DHT22;34437;-33.956;151.076;2023-02-13T09:17:44;24.30;61.50
48648;DHT22;34437;-33.956;151.076;2023-02-13T09:20:08;24.40;61.50
48648;DHT22;34437;-33.956;151.076;2023-02-13T09:22:31;24.40;61.50
48648;DHT22;34437;-33.956;151.076;2023-02-13T09:24:53;24.40;61.50
48648;DHT22;34437;-33.956;151.076;2023-02-13T09:27:16;24.40;61.40
48648;DHT22;34437;-33.956;151.076;2023-02-13T09:29:38;24.40;61.40
48648;DHT22;34437;-33.956;151.076;2023-02-13T09:32:00;24.40;61.40
48648;DHT22;34437;-33.956;151.076;2023-02-13T09:34:23;24.30;61.30
48648;DHT22;34437;-33.956;151.076;2023-02-13T09:36:45;24.30;61.30
48648;DHT22;34437;-33.956;151.076;2023-02-13T09:39:12;24.40;61.30
48648;DHT22;34437;-33.956;151.076;2023-02-13T09:41:41;24.40;61.30
48648;DHT22;34437;-33.956;151.076;2023-02-13T09:44:34;24.40;61.30
48648;DHT22;34437;-33.956;151.076;2023-02-13T09:49:37;24.40;61.20
48648;DHT22;34437;-33.956;151.076;2023-02-13T09:52:02;24.40;61.20
48648;DHT22;34437;-33.956;151.076;2023-02-13T09:54:24;24.40;61.10
48648;DHT22;34437;-33.956;151.076;2023-02-13T10:00:52;24.40;61.10
48648;DHT22;34437;-33.956;151.076;2023-02-13T10:11:03;24.40;61.10
48648;DHT22;34437;-33.956;151.076;2023-02-13T10:16:14;24.40;61.10
48648;DHT22;34437;-33.956;151.076;2023-02-13T10:21:25;24.40;61.10
48648;DHT22;34437;-33.956;151.076;2023-02-13T10:26:32;24.40;61.10
48648;DHT22;34437;-33.956;151.076;2023-02-13T10:29:17;24.40;61.10
48648;DHT22;34437;-33.956;151.076;2023-02-13T10:32:03;24.50;61.10
48648;DHT22;34437;-33.956;151.076;2023-02-13T10:34:33;24.40;61.10
48648;DHT22;34437;-33.956;151.076;2023-02-13T10:36:56;24.50;61.10
48648;DHT22;34437;-33.956;151.076;2023-02-13T10:39:32;24.50;61.10
48648;DHT22;34437;-33.956;151.076;2023-02-13T10:47:08;24.40;61.10
48648;DHT22;34437;-33.956;151.076;2023-02-13T10:55:24;24.50;61.10
48648;DHT22;34437;-33.956;151.076;2023-02-13T10:58:18;24.50;61.10
48648;DHT22;34437;-33.956;151.076;2023-02-13T11:03:24;24.50;62.70
48648;DHT22;34437;-33.956;151.076;2023-02-13T11:05:47;24.50;63.00
48648;DHT22;34437;-33.956;151.076;2023-02-13T11:08:40;24.50;63.10
48648;DHT22;34437;-33.956;151.076;2023-02-13T11:11:36;24.50;63.30
48648;DHT22;34437;-33.956;151.076;2023-02-13T11:14:16;24.60;63.60
48648;DHT22;34437;-33.956;151.076;2023-02-13T11:17:04;24.60;63.70
48648;DHT22;34437;-33.956;151.076;2023-02-13T11:19:35;24.60;63.80
48648;DHT22;34437;-33.956;151.076;2023-02-13T11:22:05;24.70;64.00
48648;DHT22;34437;-33.956;151.076;2023-02-13T11:24:30;24.70;64.10
48648;DHT22;34437;-33.956;151.076;2023-02-13T11:26:59;24.70;64.10
48648;DHT22;34437;-33.956;151.076;2023-02-13T11:29:29;24.70;64.30
48648;DHT22;34437;-33.956;151.076;2023-02-13T11:32:03;24.70;64.40
48648;DHT22;34437;-33.956;151.076;2023-02-13T11:34:29;24.70;64.40
48648;DHT22;34437;-33.956;151.076;2023-02-13T11:36:53;24.80;64.50
48648;DHT22;34437;-33.956;151.076;2023-02-13T11:39:21;24.80;64.50
48648;DHT22;34437;-33.956;151.076;2023-02-13T11:41:45;24.80;64.60
48648;DHT22;34437;-33.956;151.076;2023-02-13T11:44:25;24.80;64.50
48648;DHT22;34437;-33.956;151.076;2023-02-13T11:46:51;24.80;64.40
48648;DHT22;34437;-33.956;151.076;2023-02-13T11:49:20;24.80;64.30
48648;DHT22;34437;-33.956;151.076;2023-02-13T11:51:46;24.80;64.40
48648;DHT22;34437;-33.956;151.076;2023-02-13T11:54:40;24.90;64.50
48648;DHT22;34437;-33.956;151.076;2023-02-13T11:57:21;24.90;64.30
48648;DHT22;34437;-33.956;151.076;2023-02-13T11:59:45;24.90;64.20
48648;DHT22;34437;-33.956;151.076;2023-02-13T12:02:23;24.90;64.20
48648;DHT22;34437;-33.956;151.076;2023-02-13T12:04:47;25.00;64.20
48648;DHT22;34437;-33.956;151.076;2023-02-13T12:09:39;25.00;64.10
48648;DHT22;34437;-33.956;151.076;2023-02-13T12:12:03;25.00;64.00
48648;DHT22;34437;-33.956;151.076;2023-02-13T12:14:39;25.00;64.00
48648;DHT22;34437;-33.956;151.076;2023-02-13T12:17:14;25.10;64.00
48648;DHT22;34437;-33.956;151.076;2023-02-13T12:19:43;25.10;64.00
48648;DHT22;34437;-33.956;151.076;2023-02-13T12:22:40;25.10;64.00
48648;DHT22;34437;-33.956;151.076;2023-02-13T12:25:34;25.10;64.00
48648;DHT22;34437;-33.956;151.076;2023-02-13T12:36:00;25.20;64.00
48648;DHT22;34437;-33.956;151.076;2023-02-13T12:44:18;25.20;63.90
48648;DHT22;34437;-33.956;151.076;2023-02-13T12:47:22;25.20;63.80
48648;DHT22;34437;-33.956;151.076;2023-02-13T13:23:23;25.30;64.20
48648;DHT22;34437;-33.956;151.076;2023-02-13T13:26:37;25.20;64.00
48648;DHT22;34437;-33.956;151.076;2023-02-13T13:28:46;25.20;64.10
48648;DHT22;34437;-33.956;151.076;2023-02-13T13:31:11;25.20;64.10
48648;DHT22;34437;-33.956;151.076;2023-02-13T13:33:35;25.20;64.10
48648;DHT22;34437;-33.956;151.076;2023-02-13T13:36:06;25.20;64.10
48648;DHT22;34437;-33.956;151.076;2023-02-13T13:38:45;25.30;64.20
48648;DHT22;34437;-33.956;151.076;2023-02-13T13:53:23;25.20;64.20
48648;DHT22;34437;-33.956;151.076;2023-02-13T14:01:24;25.30;64.60
48648;DHT22;34437;-33.956;151.076;2023-02-13T14:06:22;25.20;64.40
48648;DHT22;34437;-33.956;151.076;2023-02-13T14:11:41;25.20;64.60
48648;DHT22;34437;-33.956;151.076;2023-02-13T14:16:48;25.10;64.80
48648;DHT22;34437;-33.956;151.076;2023-02-13T14:19:45;25.10;64.80
48648;DHT22;34437;-33.956;151.076;2023-02-13T14:22:26;25.10;64.90
48648;DHT22;34437;-33.956;151.076;2023-02-13T14:24:57;25.10;64.90
48648;DHT22;34437;-33.956;151.076;2023-02-13T14:29:52;25.10;64.90
48648;DHT22;34437;-33.956;151.076;2023-02-13T14:32:24;25.10;64.80
48648;DHT22;34437;-33.956;151.076;2023-02-13T14:35:01;25.10;64.90
48648;DHT22;34437;-33.956;151.076;2023-02-13T14:37:37;25.10;64.90
48648;DHT22;34437;-33.956;151.076;2023-02-13T14:45:16;25.10;64.70
48648;DHT22;34437;-33.956;151.076;2023-02-13T14:47:45;25.10;64.60
48648;DHT22;34437;-33.956;151.076;2023-02-13T14:50:44;25.10;64.60
48648;DHT22;34437;-33.956;151.076;2023-02-13T14:53:24;25.10;64.50
48648;DHT22;34437;-33.956;151.076;2023-02-13T14:55:52;25.10;64.60
48648;DHT22;34437;-33.956;151.076;2023-02-13T15:01:04;25.20;64.90
48648;DHT22;34437;-33.956;151.076;2023-02-13T15:03:39;25.20;64.70
48648;DHT22;34437;-33.956;151.076;2023-02-13T15:06:12;25.20;64.70
48648;DHT22;34437;-33.956;151.076;2023-02-13T15:08:41;25.20;64.60
48648;DHT22;34437;-33.956;151.076;2023-02-13T15:11:05;25.20;64.50
48648;DHT22;34437;-33.956;151.076;2023-02-13T15:13:47;25.20;64.40
48648;DHT22;34437;-33.956;151.076;2023-02-13T15:16:11;25.30;64.40
48648;DHT22;34437;-33.956;151.076;2023-02-13T15:18:47;25.30;64.30
48648;DHT22;34437;-33.956;151.076;2023-02-13T15:21:20;25.30;64.30
48648;DHT22;34437;-33.956;151.076;2023-02-13T15:23:43;25.30;64.20
48648;DHT22;34437;-33.956;151.076;2023-02-13T15:26:19;25.30;64.20
48648;DHT22;34437;-33.956;151.076;2023-02-13T15:29:03;25.30;64.10
48648;DHT22;34437;-33.956;151.076;2023-02-13T15:31:30;25.30;64.10
48648;DHT22;34437;-33.956;151.076;2023-02-13T15:33:59;25.30;64.20
48648;DHT22;34437;-33.956;151.076;2023-02-13T15:36:24;25.30;64.10
48648;DHT22;34437;-33.956;151.076;2023-02-13T15:38:47;25.30;64.70
48648;DHT22;34437;-33.956;151.076;2023-02-13T15:43:51;25.40;64.10
48648;DHT22;34437;-33.956;151.076;2023-02-13T15:48:53;25.40;64.60
48648;DHT22;34437;-33.956;151.076;2023-02-13T15:51:27;25.40;64.30
48648;DHT22;34437;-33.956;151.076;2023-02-13T15:54:03;25.40;64.10
48648;DHT22;34437;-33.956;151.076;2023-02-13T15:56:26;25.30;64.00
48648;DHT22;34437;-33.956;151.076;2023-02-13T15:58:50;25.30;64.00
48648;DHT22;34437;-33.956;151.076;2023-02-13T16:01:13;25.30;64.00
48648;DHT22;34437;-33.956;151.076;2023-02-13T16:03:39;25.30;64.00
48648;DHT22;34437;-33.956;151.076;2023-02-13T16:06:05;25.20;63.90
48648;DHT22;34437;-33.956;151.076;2023-02-13T16:08:37;25.20;64.00
48648;DHT22;34437;-33.956;151.076;2023-02-13T16:11:21;25.20;64.00
48648;DHT22;34437;-33.956;151.076;2023-02-13T16:16:54;25.20;64.00
48648;DHT22;34437;-33.956;151.076;2023-02-13T16:22:06;25.20;64.00
48648;DHT22;34437;-33.956;151.076;2023-02-13T16:24:36;25.10;63.90
48648;DHT22;34437;-33.956;151.076;2023-02-13T16:27:00;25.10;64.00
48648;DHT22;34437;-33.956;151.076;2023-02-13T16:29:24;25.10;64.00
48648;DHT22;34437;-33.956;151.076;2023-02-13T16:31:49;25.10;64.00
48648;DHT22;34437;-33.956;151.076;2023-02-13T16:34:30;25.10;64.00
48648;DHT22;34437;-33.956;151.076;2023-02-13T16:36:53;25.10;63.50
48648;DHT22;34437;-33.956;151.076;2023-02-13T16:39:25;25.10;64.10
48648;DHT22;34437;-33.956;151.076;2023-02-13T16:41:48;25.10;64.10
48648;DHT22;34437;-33.956;151.076;2023-02-13T16:44:40;25.10;64.20
48648;DHT22;34437;-33.956;151.076;2023-02-13T16:47:04;25.10;64.30
48648;DHT22;34437;-33.956;151.076;2023-02-13T16:49:31;25.10;64.20
48648;DHT22;34437;-33.956;151.076;2023-02-13T16:54:30;25.10;64.10
48648;DHT22;34437;-33.956;151.076;2023-02-13T17:05:01;25.10;64.00
48648;DHT22;34437;-33.956;151.076;2023-02-13T17:07:35;25.10;63.90
48648;DHT22;34437;-33.956;151.076;2023-02-13T17:12:27;25.10;63.90
48648;DHT22;34437;-33.956;151.076;2023-02-13T17:14:50;25.10;63.90
48648;DHT22;34437;-33.956;151.076;2023-02-13T17:17:16;25.10;63.90
48648;DHT22;34437;-33.956;151.076;2023-02-13T17:19:39;25.10;63.90
48648;DHT22;34437;-33.956;151.076;2023-02-13T17:22:02;25.10;63.90
48648;DHT22;34437;-33.956;151.076;2023-02-13T17:24:24;25.00;63.80
48648;DHT22;34437;-33.956;151.076;2023-02-13T17:26:47;25.00;63.80
48648;DHT22;34437;-33.956;151.076;2023-02-13T17:29:09;25.00;63.80
48648;DHT22;34437;-33.956;151.076;2023-02-13T17:31:32;25.00;63.80
48648;DHT22;34437;-33.956;151.076;2023-02-13T17:33:54;25.00;64.00
48648;DHT22;34437;-33.956;151.076;2023-02-13T17:36:16;25.00;64.00
48648;DHT22;34437;-33.956;151.076;2023-02-13T17:38:39;25.00;63.90
48648;DHT22;34437;-33.956;151.076;2023-02-13T17:41:02;24.90;63.90
48648;DHT22;34437;-33.956;151.076;2023-02-13T17:43:24;24.90;64.10
48648;DHT22;34437;-33.956;151.076;2023-02-13T17:45:49;24.90;64.10
48648;DHT22;34437;-33.956;151.076;2023-02-13T17:48:11;24.90;64.20
48648;DHT22;34437;-33.956;151.076;2023-02-13T17:50:34;24.90;64.10
48648;DHT22;34437;-33.956;151.076;2023-02-13T17:53:00;24.90;64.10
48648;DHT22;34437;-33.956;151.076;2023-02-13T17:55:28;24.90;64.10
48648;DHT22;34437;-33.956;151.076;2023-02-13T17:57:52;24.90;64.10
48648;DHT22;34437;-33.956;151.076;2023-02-13T18:00:20;24.90;64.10
48648;DHT22;34437;-33.956;151.076;2023-02-13T18:02:43;24.90;64.00
48648;DHT22;34437;-33.956;151.076;2023-02-13T18:05:05;24.90;64.00